Time;durP1;ratioP1;P1;durP2;ratioP2;P2;SDS_P1;SDS_P2;PMS_P1;PMS_P2;Temp;Humidity;BMP_temperature;BMP_pressure;BME280_temperature;BME280_humidity;BME280_pressure;Samples;Min_cycle;Max_cycle;Signal;HPM_P1;HPM_P2
2024/01/11 00:00:50;;;;;;;0.22;0.22;;;;;;;;;;5075933;28;20127;-81
2024/01/11 00:03:18;;;;;;;0.50;0.50;;;;;;;;;;5076074;28;20528;-82
2024/01/11 00:05:46;;;;;;;0.20;0.20;;;;;;;;;;5058669;28;20043;-83
2024/01/11 00:08:12;;;;;;;0.77;0.77;;;;;;;;;;5057586;28;20120;-81
2024/01/11 00:10:37;;;;;;;0.57;0.57;;;;;;;;;;5074189;28;20103;-80
2024/01/11 00:13:06;;;;;;;0.70;0.70;;;;;;;;;;5074024;28;20021;-81
2024/01/11 00:15:31;;;;;;;0.73;0.73;;;;;;;;;;5072822;28;20039;-81
2024/01/11 00:17:57;;;;;;;0.20;0.20;;;;;;;;;;5072849;28;20033;-81
2024/01/11 00:20:22;;;;;;;0.40;0.40;;;;;;;;;;5073390;28;20041;-81
2024/01/11 00:22:48;;;;;;;1.27;1.20;;;;;;;;;;5076198;28;20091;-81
2024/01/11 00:25:14;;;;;;;0.47;0.47;;;;;;;;;;5073868;28;20024;-79
2024/01/11 00:27:39;;;;;;;1.15;1.05;;;;;;;;;;5076245;28;20027;-81
2024/01/11 00:30:06;;;;;;;0.43;0.43;;;;;;;;;;5074208;28;20032;-80
2024/01/11 00:32:31;;;;;;;0.57;0.57;;;;;;;;;;5073561;28;20028;-80
2024/01/11 00:34:57;;;;;;;0.50;0.50;;;;;;;;;;5074473;28;20384;-79
2024/01/11 00:37:22;;;;;;;0.30;0.30;;;;;;;;;;5052298;28;20040;-82
2024/01/11 00:39:48;;;;;;;0.68;0.68;;;;;;;;;;5071925;28;20090;-82
2024/01/11 00:42:18;;;;;;;0.40;0.40;;;;;;;;;;5056174;28;20028;-80
2024/01/11 00:44:50;;;;;;;1.02;1.02;;;;;;;;;;5053791;28;20039;-81
2024/01/11 00:47:15;;;;;;;0.60;0.60;;;;;;;;;;5072019;28;20029;-81
2024/01/11 00:49:40;;;;;;;0.20;0.20;;;;;;;;;;5074065;28;20029;-79
2024/01/11 00:52:06;;;;;;;0.30;0.30;;;;;;;;;;5069507;28;20048;-80
2024/01/11 00:54:31;;;;;;;0.60;0.60;;;;;;;;;;5074486;28;20039;-80
2024/01/11 00:56:57;;;;;;;0.80;0.80;;;;;;;;;;5073452;28;20028;-80
2024/01/11 00:59:22;;;;;;;1.20;1.17;;;;;;;;;;5073084;28;20058;-80
2024/01/11 01:02:00;;;;;;;0.60;0.60;;;;;;;;;;5056742;28;20048;-79
2024/01/11 01:04:25;;;;;;;0.55;0.55;;;;;;;;;;5069543;28;20020;-79
2024/01/11 01:06:51;;;;;;;1.40;0.90;;;;;;;;;;5071141;28;20032;-80
2024/01/11 01:09:17;;;;;;;0.50;0.50;;;;;;;;;;5072029;28;20032;-79
2024/01/11 01:11:42;;;;;;;2.25;1.20;;;;;;;;;;5072487;28;20024;-80
2024/01/11 01:14:07;;;;;;;1.42;0.85;;;;;;;;;;5070544;28;20522;-80
2024/01/11 01:16:35;;;;;;;0.88;0.88;;;;;;;;;;5071624;28;20032;-80
2024/01/11 01:19:03;;;;;;;0.63;0.63;;;;;;;;;;5072748;28;20493;-82
2024/01/11 01:21:29;;;;;;;1.65;1.05;;;;;;;;;;5074603;28;20535;-80
2024/01/11 01:23:54;;;;;;;1.23;1.23;;;;;;;;;;5074562;28;20167;-78
2024/01/11 01:26:20;;;;;;;0.55;0.30;;;;;;;;;;5054889;28;20089;-80
2024/01/11 01:28:53;;;;;;;0.90;0.90;;;;;;;;;;5076952;28;20453;-81
2024/01/11 01:31:18;;;;;;;0.40;0.40;;;;;;;;;;5073625;28;20024;-77
2024/01/11 01:33:43;;;;;;;2.45;2.25;;;;;;;;;;5073184;28;20433;-81
2024/01/11 01:36:10;;;;;;;1.65;0.90;;;;;;;;;;5073286;28;20465;-79
2024/01/11 01:38:35;;;;;;;0.38;0.38;;;;;;;;;;5071508;28;20967;-80
2024/01/11 01:41:01;;;;;;;0.20;0.20;;;;;;;;;;5069839;28;20361;-79
2024/01/11 01:43:26;;;;;;;1.55;1.45;;;;;;;;;;5072450;28;20034;-79
2024/01/11 01:45:52;;;;;;;0.30;0.30;;;;;;;;;;5070595;28;20440;-80
2024/01/11 01:48:18;;;;;;;0.43;0.43;;;;;;;;;;5071480;28;20021;-80
2024/01/11 01:50:50;;;;;;;1.75;1.15;;;;;;;;;;5068545;28;20472;-79
2024/01/11 01:53:21;;;;;;;0.98;0.98;;;;;;;;;;5054678;28;20037;-79
2024/01/11 01:55:48;;;;;;;0.43;0.43;;;;;;;;;;5072307;28;20028;-80
2024/01/11 01:58:14;;;;;;;0.40;0.40;;;;;;;;;;5070856;28;20309;-79
2024/01/11 02:00:41;;;;;;;2.85;1.55;;;;;;;;;;5069022;28;20480;-80
2024/01/11 02:03:10;;;;;;;1.60;1.50;;;;;;;;;;5069840;28;20376;-80
2024/01/11 02:05:36;;;;;;;0.40;0.40;;;;;;;;;;5071066;28;20499;-81
2024/01/11 02:08:08;;;;;;;0.60;0.60;;;;;;;;;;5051712;28;20079;-80
2024/01/11 02:10:35;;;;;;;0.50;0.50;;;;;;;;;;5070641;28;20108;-80
2024/01/11 02:13:01;;;;;;;0.90;0.90;;;;;;;;;;5053157;28;20025;-80
2024/01/11 02:15:26;;;;;;;1.13;1.02;;;;;;;;;;5051147;28;20098;-81
2024/01/11 02:17:52;;;;;;;0.95;0.80;;;;;;;;;;5070127;28;20107;-79
2024/01/11 02:20:17;;;;;;;0.75;0.50;;;;;;;;;;5069728;28;20569;-80
2024/01/11 02:22:49;;;;;;;1.20;0.65;;;;;;;;;;5069287;28;20017;-81
2024/01/11 02:25:20;;;;;;;0.30;0.30;;;;;;;;;;5070044;28;20538;-81
2024/01/11 02:27:50;;;;;;;0.30;0.30;;;;;;;;;;5051959;28;20063;-82
2024/01/11 02:30:16;;;;;;;0.68;0.68;;;;;;;;;;5051323;28;20036;-81
2024/01/11 02:32:46;;;;;;;0.20;0.20;;;;;;;;;;5069075;28;20491;-80
2024/01/11 02:35:16;;;;;;;0.40;0.40;;;;;;;;;;5070245;28;20027;-79
2024/01/11 02:37:41;;;;;;;0.32;0.32;;;;;;;;;;5069743;28;20032;-79
2024/01/11 02:40:08;;;;;;;0.30;0.30;;;;;;;;;;5070408;28;20039;-79
2024/01/11 02:42:36;;;;;;;3.80;0.60;;;;;;;;;;5070223;28;20119;-78
2024/01/11 02:45:10;;;;;;;1.60;1.50;;;;;;;;;;5055832;28;20032;-80
2024/01/11 02:47:35;;;;;;;0.50;0.50;;;;;;;;;;5073697;28;20043;-80
2024/01/11 02:50:01;;;;;;;0.43;0.43;;;;;;;;;;5074114;28;20032;-79
2024/01/11 02:52:26;;;;;;;1.10;1.00;;;;;;;;;;5073965;28;20052;-80
2024/01/11 02:54:52;;;;;;;0.20;0.20;;;;;;;;;;5073198;28;20055;-80
2024/01/11 02:57:19;;;;;;;0.60;0.60;;;;;;;;;;5073681;28;20060;-79
2024/01/11 02:59:45;;;;;;;1.13;1.02;;;;;;;;;;5072643;28;20044;-79
2024/01/11 03:02:14;;;;;;;0.55;0.55;;;;;;;;;;5074015;28;20025;-79
2024/01/11 03:04:39;;;;;;;0.45;0.45;;;;;;;;;;5073102;28;20058;-79
2024/01/11 03:07:04;;;;;;;0.20;0.20;;;;;;;;;;5056208;28;20056;-80
2024/01/11 03:09:30;;;;;;;0.40;0.40;;;;;;;;;;5073796;28;20040;-80
2024/01/11 03:11:55;;;;;;;0.68;0.68;;;;;;;;;;5072342;28;20062;-81
2024/01/11 03:14:21;;;;;;;0.38;0.38;;;;;;;;;;5074795;28;20033;-80
2024/01/11 03:16:46;;;;;;;0.40;0.40;;;;;;;;;;5072869;28;20024;-79
2024/01/11 03:19:12;;;;;;;0.63;0.63;;;;;;;;;;5070269;28;20052;-79
2024/01/11 03:21:43;;;;;;;0.80;0.80;;;;;;;;;;5071400;28;20391;-80
2024/01/11 03:24:09;;;;;;;0.50;0.50;;;;;;;;;;5072297;28;20029;-80
2024/01/11 03:26:34;;;;;;;0.82;0.50;;;;;;;;;;5072997;28;20384;-80
2024/01/11 03:29:00;;;;;;;0.65;0.65;;;;;;;;;;5072689;28;20029;-81
2024/01/11 03:31:28;;;;;;;0.98;0.98;;;;;;;;;;5070513;28;20028;-81
2024/01/11 03:33:54;;;;;;;1.05;0.95;;;;;;;;;;5073601;28;20028;-80
2024/01/11 03:36:26;;;;;;;0.65;0.55;;;;;;;;;;5072754;28;20028;-80
2024/01/11 03:38:51;;;;;;;0.57;0.57;;;;;;;;;;5053363;28;20039;-80
2024/01/11 03:41:17;;;;;;;0.73;0.73;;;;;;;;;;5073044;28;20032;-80
2024/01/11 03:43:45;;;;;;;0.30;0.30;;;;;;;;;;5071522;28;20380;-80
2024/01/11 03:46:10;;;;;;;0.73;0.73;;;;;;;;;;5074228;28;20831;-79
2024/01/11 03:48:36;;;;;;;1.02;0.90;;;;;;;;;;5073526;28;20028;-80
2024/01/11 03:51:01;;;;;;;0.88;0.85;;;;;;;;;;5072736;28;20085;-80
2024/01/11 03:53:28;;;;;;;1.05;1.05;;;;;;;;;;5071103;28;20031;-80
2024/01/11 03:55:53;;;;;;;1.02;0.95;;;;;;;;;;5053918;28;20024;-79
2024/01/11 03:58:22;;;;;;;0.40;0.40;;;;;;;;;;5070764;28;20039;-80
2024/01/11 04:00:48;;;;;;;0.82;0.55;;;;;;;;;;5072334;28;20052;-80
2024/01/11 04:03:13;;;;;;;1.02;1.02;;;;;;;;;;5071043;28;20067;-81
2024/01/11 04:05:42;;;;;;;0.28;0.28;;;;;;;;;;5072676;28;20089;-81
2024/01/11 04:08:07;;;;;;;0.70;0.70;;;;;;;;;;5071811;28;20031;-83
2024/01/11 04:10:33;;;;;;;0.85;0.77;;;;;;;;;;5054216;28;20032;-79
2024/01/11 04:12:59;;;;;;;0.90;0.75;;;;;;;;;;5074960;28;20070;-80
2024/01/11 04:15:25;;;;;;;0.25;0.25;;;;;;;;;;5073083;28;20459;-79
2024/01/11 04:17:50;;;;;;;2.47;1.05;;;;;;;;;;5073239;28;20028;-79
2024/01/11 04:20:16;;;;;;;1.90;1.67;;;;;;;;;;5052462;28;20045;-80
2024/01/11 04:22:41;;;;;;;1.17;1.08;;;;;;;;;;5053580;28;20098;-82
2024/01/11 04:25:07;;;;;;;0.90;0.90;;;;;;;;;;5050458;28;20063;-80
2024/01/11 04:27:33;;;;;;;2.17;1.02;;;;;;;;;;5049554;28;20032;-80
2024/01/11 04:30:00;;;;;;;1.60;1.50;;;;;;;;;;5050980;28;20040;-79
2024/01/11 04:32:26;;;;;;;0.40;0.40;;;;;;;;;;5050426;28;20025;-80
2024/01/11 04:34:51;;;;;;;2.33;0.98;;;;;;;;;;5053231;28;20083;-81
2024/01/11 04:37:18;;;;;;;1.75;1.63;;;;;;;;;;5034853;28;20106;-79
2024/01/11 04:39:43;;;;;;;1.10;1.00;;;;;;;;;;5050147;28;20475;-81
2024/01/11 04:42:09;;;;;;;1.10;1.05;;;;;;;;;;5050894;28;20033;-81
2024/01/11 04:44:34;;;;;;;0.80;0.63;;;;;;;;;;5051957;28;20033;-82
2024/01/11 04:47:02;;;;;;;1.30;1.20;;;;;;;;;;5051410;28;20025;-81
2024/01/11 04:49:28;;;;;;;0.90;0.90;;;;;;;;;;5050253;28;20025;-81
2024/01/11 04:51:53;;;;;;;2.05;1.95;;;;;;;;;;5049937;28;20808;-82
2024/01/11 04:54:18;;;;;;;1.73;1.27;;;;;;;;;;5049829;28;20040;-79
2024/01/11 04:56:44;;;;;;;0.20;0.20;;;;;;;;;;5052089;28;20017;-82
2024/01/11 04:59:10;;;;;;;0.85;0.85;;;;;;;;;;5050031;28;20064;-79
2024/01/11 05:01:35;;;;;;;1.10;1.10;;;;;;;;;;5050971;28;20100;-82
2024/01/11 05:04:01;;;;;;;0.85;0.75;;;;;;;;;;5049938;28;20051;-80
2024/01/11 05:06:26;;;;;;;0.30;0.30;;;;;;;;;;5053340;28;20024;-79
2024/01/11 05:08:52;;;;;;;0.63;0.63;;;;;;;;;;5050220;28;20473;-79
2024/01/11 05:11:24;;;;;;;0.30;0.30;;;;;;;;;;5037161;28;20159;-80
2024/01/11 05:13:50;;;;;;;1.90;1.70;;;;;;;;;;5052578;28;20033;-80
2024/01/11 05:16:27;;;;;;;2.10;1.10;;;;;;;;;;5049347;28;20033;-80
2024/01/11 05:18:54;;;;;;;0.65;0.65;;;;;;;;;;5058579;28;20429;-81
2024/01/11 05:21:20;;;;;;;0.82;0.82;;;;;;;;;;5070420;28;21055;-78
2024/01/11 05:23:46;;;;;;;1.20;1.15;;;;;;;;;;5072693;28;20025;-78
2024/01/11 05:26:14;;;;;;;1.25;1.00;;;;;;;;;;5072773;28;20032;-79
2024/01/11 05:28:39;;;;;;;1.35;1.27;;;;;;;;;;5071827;28;20024;-78
2024/01/11 05:31:14;;;;;;;0.70;0.70;;;;;;;;;;5053715;28;20035;-78
2024/01/11 05:33:40;;;;;;;0.65;0.65;;;;;;;;;;5069532;28;20086;-79
2024/01/11 05:36:06;;;;;;;1.45;1.38;;;;;;;;;;5070900;28;20029;-78
2024/01/11 05:38:32;;;;;;;1.10;1.10;;;;;;;;;;5069305;28;20024;-77
2024/01/11 05:40:57;;;;;;;1.67;1.60;;;;;;;;;;5069576;28;20047;-79
2024/01/11 05:43:23;;;;;;;0.40;0.40;;;;;;;;;;5069187;28;20039;-80
2024/01/11 05:45:49;;;;;;;0.45;0.45;;;;;;;;;;5067805;28;20147;-79
2024/01/11 05:48:15;;;;;;;0.90;0.90;;;;;;;;;;5067900;28;20039;-78
2024/01/11 05:50:41;;;;;;;1.05;0.98;;;;;;;;;;5065810;28;20040;-78
2024/01/11 05:53:07;;;;;;;4.75;2.67;;;;;;;;;;5051588;28;20393;-80
2024/01/11 05:55:32;;;;;;;2.03;0.88;;;;;;;;;;5070367;28;20114;-78
2024/01/11 05:57:58;;;;;;;2.22;2.05;;;;;;;;;;5071629;28;20036;-77
2024/01/11 06:00:23;;;;;;;0.60;0.60;;;;;;;;;;5072772;28;20033;-79
2024/01/11 06:02:49;;;;;;;1.48;1.38;;;;;;;;;;5072234;28;20062;-77
2024/01/11 06:07:58;;;;;;;0.40;0.40;;;;;;;;;;5067440;28;20066;-76
2024/01/11 06:10:23;;;;;;;0.70;0.70;;;;;;;;;;5068819;28;20484;-76
2024/01/11 06:12:49;;;;;;;1.58;1.48;;;;;;;;;;5068231;28;20025;-77
2024/01/11 06:15:14;;;;;;;1.85;1.67;;;;;;;;;;5050137;28;20495;-76
2024/01/11 06:17:40;;;;;;;0.63;0.63;;;;;;;;;;5065376;28;20037;-79
2024/01/11 06:20:05;;;;;;;0.30;0.30;;;;;;;;;;5067851;28;20040;-76
2024/01/11 06:22:32;;;;;;;0.63;0.55;;;;;;;;;;5066481;28;20533;-79
2024/01/11 06:24:59;;;;;;;0.57;0.57;;;;;;;;;;5068818;28;20081;-78
2024/01/11 06:27:25;;;;;;;1.35;1.10;;;;;;;;;;5069028;28;20032;-77
2024/01/11 06:29:50;;;;;;;0.63;0.63;;;;;;;;;;5068021;28;20024;-77
2024/01/11 06:32:15;;;;;;;1.58;1.48;;;;;;;;;;5068090;28;20041;-78
2024/01/11 06:34:45;;;;;;;1.48;1.38;;;;;;;;;;5066074;28;20024;-78
2024/01/11 06:37:10;;;;;;;;;;;;;;;;;;5068621;28;20473;-77
2024/01/11 06:39:36;;;;;;;1.17;0.90;;;;;;;;;;5068663;28;19912;-79
2024/01/11 06:42:01;;;;;;;0.85;0.85;;;;;;;;;;5068286;28;20039;-78
2024/01/11 06:44:26;;;;;;;0.30;0.30;;;;;;;;;;5067838;28;20035;-78
2024/01/11 06:46:52;;;;;;;1.58;1.48;;;;;;;;;;5068538;28;20484;-78
2024/01/11 06:49:17;;;;;;;1.55;1.00;;;;;;;;;;5065888;28;20037;-78
2024/01/11 06:51:43;;;;;;;1.75;1.30;;;;;;;;;;5049211;28;20341;-79
2024/01/11 06:54:08;;;;;;;0.95;0.95;;;;;;;;;;5067442;28;20074;-79
2024/01/11 06:56:33;;;;;;;0.52;0.52;;;;;;;;;;5068962;28;20114;-79
2024/01/11 06:58:59;;;;;;;0.82;0.82;;;;;;;;;;5066020;28;20404;-80
2024/01/11 07:01:25;;;;;;;0.43;0.43;;;;;;;;;;5068186;28;20032;-81
2024/01/11 07:03:50;;;;;;;2.83;0.75;;;;;;;;;;5062564;28;20047;-81
2024/01/11 07:06:16;;;;;;;0.85;0.85;;;;;;;;;;5066275;28;20047;-79
2024/01/11 07:08:41;;;;;;;0.47;0.47;;;;;;;;;;5065835;28;20033;-78
2024/01/11 07:11:07;;;;;;;1.65;1.55;;;;;;;;;;5067620;28;20081;-81
2024/01/11 07:13:33;;;;;;;0.50;0.50;;;;;;;;;;5067112;28;20030;-78
2024/01/11 07:15:58;;;;;;;2.15;1.60;;;;;;;;;;5065581;28;20395;-79
2024/01/11 07:18:25;;;;;;;0.65;0.65;;;;;;;;;;5050920;28;20118;-78
2024/01/11 07:20:52;;;;;;;1.45;1.35;;;;;;;;;;5053531;28;20409;-81
2024/01/11 07:23:17;;;;;;;1.52;1.40;;;;;;;;;;5070828;28;20029;-80
2024/01/11 07:25:43;;;;;;;2.78;2.15;;;;;;;;;;5071000;28;20035;-81
2024/01/11 07:28:08;;;;;;;3.38;3.10;;;;;;;;;;5069970;28;20036;-81
2024/01/11 07:30:34;;;;;;;2.40;2.20;;;;;;;;;;5066814;28;20036;-77
2024/01/11 07:33:00;;;;;;;3.10;2.85;;;;;;;;;;5071523;28;20112;-78
2024/01/11 07:35:25;;;;;;;3.28;2.97;;;;;;;;;;5072196;28;20506;-79
2024/01/11 07:37:51;;;;;;;3.80;3.50;;;;;;;;;;5071881;28;20031;-79
2024/01/11 07:40:16;;;;;;;2.67;2.42;;;;;;;;;;5070875;28;20399;-77
2024/01/11 07:42:42;;;;;;;2.22;2.03;;;;;;;;;;5070055;28;20044;-77
2024/01/11 07:45:09;;;;;;;2.83;2.50;;;;;;;;;;5071200;28;20781;-77
2024/01/11 07:47:37;;;;;;;2.58;2.38;;;;;;;;;;5069928;28;20112;-79
2024/01/11 07:50:03;;;;;;;2.28;2.15;;;;;;;;;;5071342;28;20044;-77
2024/01/11 07:52:29;;;;;;;2.25;2.15;;;;;;;;;;5071294;28;20063;-78
2024/01/11 07:54:54;;;;;;;4.70;3.42;;;;;;;;;;5071587;28;20051;-79
2024/01/11 07:57:19;;;;;;;2.70;2.58;;;;;;;;;;5070971;28;20131;-77
2024/01/11 07:59:45;;;;;;;7.43;4.55;;;;;;;;;;5071600;28;20028;-77
2024/01/11 08:02:10;;;;;;;5.47;4.22;;;;;;;;;;5070155;28;20434;-76
2024/01/11 08:04:38;;;;;;;2.92;2.75;;;;;;;;;;5071470;28;20496;-77
2024/01/11 08:07:04;;;;;;;4.25;3.83;;;;;;;;;;5067774;28;20032;-77
2024/01/11 08:09:29;;;;;;;4.40;4.13;;;;;;;;;;5071223;28;20024;-79
2024/01/11 08:11:54;;;;;;;2.85;2.55;;;;;;;;;;5071303;28;20028;-80
2024/01/11 08:14:21;;;;;;;2.60;2.35;;;;;;;;;;5069050;28;20107;-78
2024/01/11 08:16:46;;;;;;;5.68;2.67;;;;;;;;;;5071289;28;20043;-79
2024/01/11 08:19:14;;;;;;;3.08;2.83;;;;;;;;;;5071010;28;20123;-78
2024/01/11 08:21:41;;;;;;;2.80;2.58;;;;;;;;;;5071495;28;20039;-78
2024/01/11 08:24:07;;;;;;;5.28;3.50;;;;;;;;;;5049736;28;20028;-78
2024/01/11 08:26:32;;;;;;;3.03;2.80;;;;;;;;;;5070843;28;20085;-77
2024/01/11 08:28:58;;;;;;;3.60;3.05;;;;;;;;;;5071198;28;20028;-79
2024/01/11 08:31:23;;;;;;;5.57;4.30;;;;;;;;;;5069041;28;20392;-78
2024/01/11 08:33:49;;;;;;;4.88;2.95;;;;;;;;;;5069907;28;20064;-78
2024/01/11 08:36:15;;;;;;;4.22;3.33;;;;;;;;;;5070832;28;20438;-78
2024/01/11 08:38:41;;;;;;;3.58;2.05;;;;;;;;;;5050765;28;20127;-78
2024/01/11 08:41:06;;;;;;;5.25;4.75;;;;;;;;;;5066635;28;20036;-78
2024/01/11 08:43:32;;;;;;;1.65;1.55;;;;;;;;;;5069961;28;20032;-78
2024/01/11 08:45:58;;;;;;;2.78;2.58;;;;;;;;;;5070474;28;20020;-77
2024/01/11 08:48:23;;;;;;;7.47;2.92;;;;;;;;;;5068767;28;20611;-79
2024/01/11 08:50:48;;;;;;;6.43;2.55;;;;;;;;;;5070714;28;20024;-77
2024/01/11 08:53:15;;;;;;;8.25;2.95;;;;;;;;;;5070200;28;21735;-77
2024/01/11 08:55:41;;;;;;;3.17;2.88;;;;;;;;;;5051050;28;20115;-78
2024/01/11 08:58:06;;;;;;;2.75;2.58;;;;;;;;;;5068988;28;20438;-78
2024/01/11 09:00:32;;;;;;;6.78;4.15;;;;;;;;;;5068019;28;20036;-77
2024/01/11 09:02:57;;;;;;;4.82;3.10;;;;;;;;;;5051493;28;20393;-76
2024/01/11 09:05:23;;;;;;;3.58;3.13;;;;;;;;;;5069386;28;20027;-77
2024/01/11 09:07:48;;;;;;;3.05;2.42;;;;;;;;;;5069347;28;20024;-78
2024/01/11 09:10:14;;;;;;;5.88;4.18;;;;;;;;;;5069512;28;20107;-77
2024/01/11 09:12:39;;;;;;;4.40;4.00;;;;;;;;;;5069269;28;20028;-76
2024/01/11 09:15:05;;;;;;;3.65;3.38;;;;;;;;;;5068676;28;20031;-77
2024/01/11 09:17:30;;;;;;;4.88;3.47;;;;;;;;;;5067943;28;20029;-77
2024/01/11 09:19:56;;;;;;;7.95;4.82;;;;;;;;;;5069017;28;20056;-78
2024/01/11 09:22:21;;;;;;;4.63;4.00;;;;;;;;;;5067200;28;20028;-77
2024/01/11 09:24:47;;;;;;;2.08;1.92;;;;;;;;;;5069133;28;20040;-76
2024/01/11 09:27:12;;;;;;;3.55;2.17;;;;;;;;;;5069940;28;20028;-76
2024/01/11 09:29:45;;;;;;;2.83;2.63;;;;;;;;;;5069497;28;20038;-77
2024/01/11 09:32:12;;;;;;;7.22;4.97;;;;;;;;;;5068773;28;20032;-79
2024/01/11 09:34:37;;;;;;;3.78;3.47;;;;;;;;;;5064085;28;20059;-77
2024/01/11 09:37:03;;;;;;;4.30;2.97;;;;;;;;;;5067457;28;20168;-77
2024/01/11 09:39:29;;;;;;;4.40;4.00;;;;;;;;;;5064795;28;20025;-77
2024/01/11 09:42:09;;;;;;;2.55;2.35;;;;;;;;;;5068433;28;20024;-78
2024/01/11 09:44:37;;;;;;;3.40;2.67;;;;;;;;;;5050317;28;20903;-77
2024/01/11 09:47:04;;;;;;;7.05;4.90;;;;;;;;;;5068550;28;20031;-78
2024/01/11 09:49:30;;;;;;;8.80;6.00;;;;;;;;;;5068708;28;20028;-76
2024/01/11 09:51:59;;;;;;;5.75;4.97;;;;;;;;;;5067435;28;20033;-77
2024/01/11 09:54:26;;;;;;;4.45;4.03;;;;;;;;;;5069142;28;20031;-79
2024/01/11 09:56:54;;;;;;;3.28;2.97;;;;;;;;;;5068088;28;20028;-78
2024/01/11 09:59:22;;;;;;;4.43;4.03;;;;;;;;;;5067836;28;20094;-77
2024/01/11 10:01:48;;;;;;;4.10;2.90;;;;;;;;;;5067506;28;20464;-78
2024/01/11 10:04:15;;;;;;;7.47;5.55;;;;;;;;;;5069194;28;20404;-79
2024/01/11 10:06:41;;;;;;;3.10;2.30;;;;;;;;;;5050343;28;20028;-78
2024/01/11 10:09:07;;;;;;;3.50;3.25;;;;;;;;;;5067082;28;20032;-78
2024/01/11 10:11:34;;;;;;;4.35;3.03;;;;;;;;;;5068435;28;20036;-78
2024/01/11 10:14:00;;;;;;;3.65;3.30;;;;;;;;;;5067927;28;20028;-76
2024/01/11 10:16:28;;;;;;;4.00;3.63;;;;;;;;;;5066633;28;20028;-77
2024/01/11 10:18:57;;;;;;;7.90;5.40;;;;;;;;;;5065275;28;20040;-78
2024/01/11 10:21:23;;;;;;;4.40;4.10;;;;;;;;;;5068195;28;20107;-77
2024/01/11 10:23:49;;;;;;;3.50;3.20;;;;;;;;;;5068696;28;20434;-78
2024/01/11 10:26:15;;;;;;;6.00;3.13;;;;;;;;;;5068254;28;20422;-78
2024/01/11 10:28:44;;;;;;;4.75;4.20;;;;;;;;;;5068197;28;20024;-77
2024/01/11 10:31:10;;;;;;;13.15;3.47;;;;;;;;;;5067895;28;20030;-78
2024/01/11 10:33:35;;;;;;;5.70;4.35;;;;;;;;;;5067341;28;20024;-79
2024/01/11 10:36:01;;;;;;;5.05;4.30;;;;;;;;;;5066496;28;20035;-80
2024/01/11 10:38:31;;;;;;;4.55;3.22;;;;;;;;;;5068143;28;20032;-78
2024/01/11 10:41:00;;;;;;;2.03;1.77;;;;;;;;;;5067102;28;20050;-78
2024/01/11 10:43:27;;;;;;;7.63;6.15;;;;;;;;;;5068246;28;20465;-78
2024/01/11 10:45:57;;;;;;;5.65;3.22;;;;;;;;;;5068250;28;20017;-78
2024/01/11 10:48:25;;;;;;;5.80;4.30;;;;;;;;;;5066644;28;20060;-79
2024/01/11 10:50:57;;;;;;;2.08;1.80;;;;;;;;;;5067987;28;20024;-78
2024/01/11 10:53:24;;;;;;;4.55;3.58;;;;;;;;;;5067523;28;20031;-80
2024/01/11 10:55:50;;;;;;;4.53;3.38;;;;;;;;;;5067346;28;20116;-78
2024/01/11 10:58:16;;;;;;;3.78;3.05;;;;;;;;;;5049567;28;20062;-79
2024/01/11 11:00:41;;;;;;;3.60;3.28;;;;;;;;;;5066434;28;20059;-80
2024/01/11 11:03:08;;;;;;;5.88;3.97;;;;;;;;;;5050200;28;20379;-79
2024/01/11 11:05:37;;;;;;;4.22;2.50;;;;;;;;;;5069306;28;20562;-79
2024/01/11 11:08:05;;;;;;;5.07;3.33;;;;;;;;;;5070163;28;20027;-79
2024/01/11 11:10:34;;;;;;;4.88;4.32;;;;;;;;;;5070747;28;20041;-81
2024/01/11 11:12:59;;;;;;;3.55;3.33;;;;;;;;;;5053607;28;20024;-79
2024/01/11 11:15:27;;;;;;;5.35;3.38;;;;;;;;;;5070637;28;20032;-80
2024/01/11 11:17:53;;;;;;;6.45;5.78;;;;;;;;;;5071618;28;20039;-80
2024/01/11 11:20:19;;;;;;;2.67;2.47;;;;;;;;;;5070294;28;20052;-79
2024/01/11 11:23:04;;;;;;;2.92;2.72;;;;;;;;;;5072036;28;20039;-78
2024/01/11 11:25:30;;;;;;;1.95;1.85;;;;;;;;;;5053068;28;20028;-79
2024/01/11 11:27:56;;;;;;;6.72;3.72;;;;;;;;;;5072102;28;21907;-77
2024/01/11 11:30:21;;;;;;;4.15;3.45;;;;;;;;;;5072554;28;20054;-78
2024/01/11 11:32:47;;;;;;;1.38;1.35;;;;;;;;;;5070802;28;20028;-80
2024/01/11 11:35:12;;;;;;;3.65;2.60;;;;;;;;;;5072354;28;20534;-79
2024/01/11 11:37:42;;;;;;;3.20;2.90;;;;;;;;;;5070329;28;20468;-79
2024/01/11 11:40:12;;;;;;;3.10;2.90;;;;;;;;;;5070957;28;20456;-79
2024/01/11 11:42:39;;;;;;;;;;;;;;;;;;5072252;28;20026;-78
2024/01/11 11:45:07;;;;;;;6.70;3.08;;;;;;;;;;5071797;28;19912;-80
2024/01/11 11:47:38;;;;;;;5.32;4.05;;;;;;;;;;5052343;28;20028;-79
2024/01/11 11:50:17;;;;;;;3.22;2.97;;;;;;;;;;5071688;28;20032;-79
2024/01/11 11:52:44;;;;;;;4.38;4.07;;;;;;;;;;5071075;28;20044;-79
2024/01/11 11:55:12;;;;;;;4.90;4.43;;;;;;;;;;5070964;28;20036;-79
2024/01/11 11:57:38;;;;;;;3.67;2.15;;;;;;;;;;5070678;28;20507;-80
2024/01/11 12:00:07;;;;;;;4.03;3.72;;;;;;;;;;5071488;28;20021;-79
2024/01/11 12:02:35;;;;;;;5.93;5.10;;;;;;;;;;5053334;28;20098;-79
2024/01/11 12:05:01;;;;;;;4.13;3.65;;;;;;;;;;5071411;28;20025;-79
2024/01/11 12:07:27;;;;;;;4.25;3.75;;;;;;;;;;5071308;28;20078;-78
2024/01/11 12:09:52;;;;;;;3.60;3.30;;;;;;;;;;5054009;28;20025;-79
2024/01/11 12:12:20;;;;;;;5.68;2.60;;;;;;;;;;5069659;28;20050;-77
2024/01/11 12:14:49;;;;;;;4.72;4.20;;;;;;;;;;5066985;28;20435;-82
2024/01/11 12:17:15;;;;;;;3.30;3.10;;;;;;;;;;5069866;28;20080;-78
2024/01/11 12:19:41;;;;;;;3.95;3.55;;;;;;;;;;5071123;28;20106;-80
2024/01/11 12:22:06;;;;;;;4.85;4.22;;;;;;;;;;5070001;28;20056;-79
2024/01/11 12:24:37;;;;;;;3.05;2.80;;;;;;;;;;5070131;28;20028;-80
2024/01/11 12:27:03;;;;;;;1.83;1.73;;;;;;;;;;5069941;28;20024;-78
2024/01/11 12:29:31;;;;;;;4.00;3.70;;;;;;;;;;5068647;28;20024;-81
2024/01/11 12:32:16;;;;;;;5.55;4.95;;;;;;;;;;5069093;28;20078;-80
2024/01/11 12:34:44;;;;;;;9.00;6.18;;;;;;;;;;5051580;28;20072;-80
2024/01/11 12:37:10;;;;;;;5.40;3.95;;;;;;;;;;5070694;28;20033;-79
2024/01/11 12:39:38;;;;;;;8.35;3.95;;;;;;;;;;5070385;28;20024;-79
2024/01/11 12:42:03;;;;;;;6.15;3.83;;;;;;;;;;5066510;28;20039;-80
2024/01/11 12:44:29;;;;;;;4.88;4.47;;;;;;;;;;5070906;28;20016;-79
2024/01/11 12:46:54;;;;;;;5.15;4.30;;;;;;;;;;5052572;28;20020;-78
2024/01/11 12:49:21;;;;;;;4.47;2.90;;;;;;;;;;5070718;28;20056;-80
2024/01/11 12:51:49;;;;;;;6.20;2.70;;;;;;;;;;5070597;28;20082;-81
2024/01/11 12:54:15;;;;;;;3.03;2.53;;;;;;;;;;5070898;28;20071;-81
2024/01/11 12:56:42;;;;;;;2.25;2.15;;;;;;;;;;5070874;28;20052;-79
2024/01/11 12:59:09;;;;;;;5.38;2.75;;;;;;;;;;5070595;28;20464;-81
2024/01/11 13:01:36;;;;;;;2.13;1.92;;;;;;;;;;5067976;28;20017;-79
2024/01/11 13:04:02;;;;;;;1.92;1.77;;;;;;;;;;5070448;28;20024;-78
2024/01/11 13:06:30;;;;;;;4.25;2.58;;;;;;;;;;5051308;28;20083;-78
2024/01/11 13:08:56;;;;;;;2.70;2.50;;;;;;;;;;5070456;28;20151;-80
2024/01/11 13:11:23;;;;;;;2.90;2.30;;;;;;;;;;5069461;28;20128;-78
2024/01/11 13:13:49;;;;;;;3.08;1.90;;;;;;;;;;5071201;28;20024;-79
2024/01/11 13:16:15;;;;;;;2.25;1.73;;;;;;;;;;5071092;28;20039;-79
2024/01/11 13:18:40;;;;;;;2.53;2.33;;;;;;;;;;5070076;28;20048;-78
2024/01/11 13:21:09;;;;;;;1.77;1.67;;;;;;;;;;5050995;28;20035;-78
2024/01/11 13:23:37;;;;;;;3.78;1.85;;;;;;;;;;5067999;28;20032;-78
2024/01/11 13:26:03;;;;;;;2.17;1.75;;;;;;;;;;5069322;28;20020;-78
2024/01/11 13:28:28;;;;;;;1.98;1.83;;;;;;;;;;5069719;28;20379;-81
2024/01/11 13:30:53;;;;;;;1.88;1.77;;;;;;;;;;5069275;28;20020;-79
2024/01/11 13:33:19;;;;;;;6.00;2.83;;;;;;;;;;5051572;28;20739;-80
2024/01/11 13:35:45;;;;;;;1.63;1.50;;;;;;;;;;5068163;28;20028;-78
2024/01/11 13:38:10;;;;;;;1.77;1.67;;;;;;;;;;5070332;28;20495;-80
2024/01/11 13:40:36;;;;;;;2.55;1.90;;;;;;;;;;5069996;28;20047;-80
2024/01/11 13:43:02;;;;;;;1.27;1.23;;;;;;;;;;5069898;28;20028;-79
2024/01/11 13:45:29;;;;;;;2.45;2.00;;;;;;;;;;5071454;28;20045;-79
2024/01/11 13:47:55;;;;;;;1.17;1.13;;;;;;;;;;5070995;28;20071;-81
2024/01/11 13:50:21;;;;;;;0.85;0.85;;;;;;;;;;5069329;28;20070;-78
2024/01/11 13:52:46;;;;;;;1.60;1.50;;;;;;;;;;5053456;28;20032;-78
2024/01/11 13:55:12;;;;;;;2.17;1.42;;;;;;;;;;5070725;28;20683;-79
2024/01/11 13:57:38;;;;;;;1.58;1.48;;;;;;;;;;5052355;28;20166;-79
2024/01/11 14:00:10;;;;;;;1.25;1.15;;;;;;;;;;5052198;28;20104;-78
2024/01/11 14:02:36;;;;;;;0.70;0.70;;;;;;;;;;5070852;28;20021;-79
2024/01/11 14:05:03;;;;;;;1.50;1.40;;;;;;;;;;5070655;28;20032;-79
2024/01/11 14:07:30;;;;;;;0.98;0.98;;;;;;;;;;5073376;28;20032;-78
2024/01/11 14:09:55;;;;;;;1.50;1.25;;;;;;;;;;5070957;28;21480;-78
2024/01/11 14:12:21;;;;;;;2.75;2.30;;;;;;;;;;5070104;28;20040;-79
2024/01/11 14:14:47;;;;;;;2.00;1.58;;;;;;;;;;5072092;28;20401;-79
2024/01/11 14:17:12;;;;;;;1.85;1.30;;;;;;;;;;5071678;28;20052;-78
2024/01/11 14:19:37;;;;;;;1.45;1.20;;;;;;;;;;5072172;28;20383;-78
2024/01/11 14:22:03;;;;;;;0.75;0.75;;;;;;;;;;5071751;28;20032;-78
2024/01/11 14:24:28;;;;;;;0.68;0.68;;;;;;;;;;5071539;28;20370;-78
2024/01/11 14:26:54;;;;;;;5.82;1.48;;;;;;;;;;5072847;28;20377;-78
2024/01/11 14:29:19;;;;;;;0.75;0.70;;;;;;;;;;5070713;28;20435;-78
2024/01/11 14:31:45;;;;;;;1.48;1.38;;;;;;;;;;5070833;28;20031;-78
2024/01/11 14:34:10;;;;;;;0.77;0.57;;;;;;;;;;5072184;28;20384;-79
2024/01/11 14:36:37;;;;;;;0.95;0.95;;;;;;;;;;5072419;28;20047;-79
2024/01/11 14:39:04;;;;;;;1.55;1.33;;;;;;;;;;5076992;28;20488;-80
2024/01/11 14:41:30;;;;;;;1.40;1.30;;;;;;;;;;5057914;28;20028;-80